createdAt,value
2022-11-23T00:01:34.489Z,5.30
2022-11-23T00:04:02.853Z,5.30
2022-11-23T00:06:30.657Z,5.20
2022-11-23T00:08:57.849Z,5.30
2022-11-23T00:11:26.604Z,5.30
2022-11-23T00:13:54.650Z,5.30
2022-11-23T00:16:27.874Z,5.30
2022-11-23T00:18:59.995Z,5.30
2022-11-23T00:21:29.788Z,5.30
2022-11-23T00:23:57.201Z,5.30
2022-11-23T00:26:24.295Z,5.30
2022-11-23T00:28:51.277Z,5.20
2022-11-23T00:31:20.545Z,5.20
2022-11-23T00:33:52.513Z,5.30
2022-11-23T00:36:20.271Z,5.20
2022-11-23T00:38:48.784Z,5.30
2022-11-23T00:41:18.685Z,5.30
2022-11-23T00:43:45.892Z,5.30
2022-11-23T00:46:15.555Z,5.30
2022-11-23T00:48:47.232Z,5.30
2022-11-23T00:51:16.893Z,5.30
2022-11-23T00:53:44.350Z,5.30
2022-11-23T00:56:13.084Z,5.30
2022-11-23T00:58:40.693Z,5.30
2022-11-23T01:01:13.794Z,5.30
2022-11-23T01:03:43.252Z,5.40
2022-11-23T01:06:16.384Z,5.40
2022-11-23T01:08:54.001Z,5.40
2022-11-23T01:11:23.845Z,5.40
2022-11-23T01:13:50.919Z,5.40
2022-11-23T01:16:28.744Z,5.30
2022-11-23T01:19:01.727Z,5.30
2022-11-23T01:21:30.497Z,5.20
2022-11-23T01:23:57.896Z,5.30
2022-11-23T01:26:25.691Z,5.20
2022-11-23T01:28:52.737Z,5.30
2022-11-23T01:31:25.147Z,5.20
2022-11-23T01:34:02.856Z,5.20
2022-11-23T01:36:32.975Z,5.20
2022-11-23T01:39:01.246Z,5.20
2022-11-23T01:41:30.970Z,5.20
2022-11-23T01:43:58.006Z,5.20
2022-11-23T01:46:25.231Z,5.20
2022-11-23T01:48:55.165Z,5.20
2022-11-23T01:51:29.275Z,5.10
2022-11-23T01:54:02.386Z,5.20
2022-11-23T01:56:35.350Z,5.20
2022-11-23T01:59:05.298Z,5.10
2022-11-23T02:01:32.443Z,5.20
2022-11-23T02:04:01.965Z,5.20
2022-11-23T02:06:31.351Z,5.20
2022-11-23T02:09:02.806Z,5.20
2022-11-23T02:11:29.830Z,5.20
2022-11-23T02:13:57.218Z,5.10
2022-11-23T02:16:24.234Z,5.10
2022-11-23T02:18:52.066Z,5.10
2022-11-23T02:21:21.808Z,5.10
2022-11-23T02:24:16.575Z,5.20
2022-11-23T02:26:44.605Z,5.10
2022-11-23T02:29:16.666Z,5.10
2022-11-23T02:34:28.468Z,5.20
2022-11-23T02:36:57.429Z,5.30
2022-11-23T02:39:57.104Z,5.30
2022-11-23T02:45:23.406Z,5.30
2022-11-23T02:50:34.706Z,5.30
2022-11-23T02:53:01.749Z,5.30
2022-11-23T02:55:31.850Z,5.30
2022-11-23T02:58:00.762Z,5.30
2022-11-23T03:00:28.771Z,5.20
2022-11-23T03:02:55.836Z,5.20
2022-11-23T03:05:23.057Z,5.30
2022-11-23T03:07:51.896Z,5.30
2022-11-23T03:10:20.046Z,5.30
2022-11-23T03:12:53.251Z,5.30
2022-11-23T03:15:20.411Z,5.30
2022-11-23T03:17:47.729Z,5.30
2022-11-23T03:20:16.521Z,5.20
2022-11-23T03:22:46.616Z,5.20
2022-11-23T03:25:15.136Z,5.10
2022-11-23T03:27:44.783Z,5.00
2022-11-23T03:30:12.046Z,5.10
2022-11-23T03:32:39.050Z,5.10
2022-11-23T03:35:06.652Z,5.20
2022-11-23T03:37:35.486Z,5.10
2022-11-23T03:40:02.472Z,5.10
2022-11-23T03:42:48.008Z,5.20
2022-11-23T03:45:15.113Z,5.10
2022-11-23T03:47:42.062Z,5.10
2022-11-23T03:50:09.526Z,5.10
2022-11-23T03:52:37.556Z,5.20
2022-11-23T03:55:04.896Z,5.20
2022-11-23T03:57:32.136Z,5.20
2022-11-23T04:00:01.498Z,5.10
2022-11-23T04:02:28.494Z,5.10
2022-11-23T04:05:05.968Z,5.10
2022-11-23T04:07:51.497Z,5.10
2022-11-23T04:10:19.655Z,5.10
2022-11-23T04:12:59.684Z,5.10
2022-11-23T04:15:26.607Z,5.10
2022-11-23T04:17:55.357Z,5.10
2022-11-23T04:20:22.333Z,5.10
2022-11-23T04:22:49.359Z,5.20
2022-11-23T04:25:17.114Z,5.10
2022-11-23T04:27:45.767Z,5.10
2022-11-23T04:30:14.314Z,5.10
2022-11-23T04:32:41.253Z,5.10
2022-11-23T04:35:08.614Z,5.20
2022-11-23T04:37:37.153Z,5.20
2022-11-23T04:40:04.851Z,5.10
2022-11-23T04:42:44.282Z,5.10
2022-11-23T04:45:11.573Z,5.10
2022-11-23T04:47:38.603Z,5.20
2022-11-23T04:50:11.092Z,5.20
2022-11-23T04:52:38.119Z,5.30
2022-11-23T04:55:10.936Z,5.20
2022-11-23T04:57:46.399Z,5.20
2022-11-23T05:00:14.185Z,5.20
2022-11-23T05:02:41.563Z,5.20
2022-11-23T05:05:15.569Z,5.20
2022-11-23T05:07:43.560Z,5.20
2022-11-23T05:10:10.751Z,5.20
2022-11-23T05:12:37.851Z,5.20
2022-11-23T05:15:05.768Z,5.20
2022-11-23T05:17:36.483Z,5.20
2022-11-23T05:20:07.170Z,5.20
2022-11-23T05:22:36.251Z,5.20
2022-11-23T05:25:07.367Z,5.20
2022-11-23T05:27:35.544Z,5.20
2022-11-23T05:30:03.139Z,5.20
2022-11-23T05:32:31.129Z,5.20
2022-11-23T05:35:00.843Z,5.20
2022-11-23T05:37:30.271Z,5.20
2022-11-23T05:40:01.850Z,5.10
2022-11-23T05:42:30.967Z,5.10
2022-11-23T05:45:10.034Z,5.10
2022-11-23T05:47:41.955Z,5.20
2022-11-23T05:50:18.427Z,5.10
2022-11-23T05:52:46.585Z,5.00
2022-11-23T05:55:14.549Z,5.00
2022-11-23T05:57:42.007Z,5.00
2022-11-23T06:00:13.348Z,5.00
2022-11-23T06:02:46.019Z,5.00
2022-11-23T06:05:13.556Z,4.90
2022-11-23T06:07:53.005Z,5.00
2022-11-23T06:10:24.068Z,5.00
2022-11-23T06:12:52.700Z,5.00
2022-11-23T06:15:22.614Z,5.00
2022-11-23T06:17:49.880Z,5.00
2022-11-23T06:20:20.623Z,5.10
2022-11-23T06:22:56.832Z,5.10
2022-11-23T06:25:25.580Z,5.10
2022-11-23T06:28:10.093Z,5.00
2022-11-23T06:30:46.258Z,5.10
2022-11-23T06:33:14.074Z,5.00
2022-11-23T06:35:57.727Z,5.10
2022-11-23T06:38:28.816Z,5.00
2022-11-23T06:41:03.565Z,5.00
2022-11-23T06:43:31.435Z,5.00
2022-11-23T06:45:59.707Z,5.10
2022-11-23T06:48:29.275Z,5.10
2022-11-23T06:51:01.930Z,5.10
2022-11-23T06:53:30.780Z,5.10
2022-11-23T06:56:03.004Z,5.10
2022-11-23T06:58:31.836Z,5.20
2022-11-23T07:01:02.827Z,5.20
2022-11-23T07:03:34.392Z,5.10
2022-11-23T07:06:10.205Z,5.20
2022-11-23T07:08:43.731Z,5.10
2022-11-23T07:11:31.240Z,5.10
2022-11-23T07:13:58.292Z,5.10
2022-11-23T07:16:27.714Z,5.20
2022-11-23T07:18:54.741Z,5.20
2022-11-23T07:21:21.722Z,5.20
2022-11-23T07:23:49.828Z,5.20
2022-11-23T07:26:16.851Z,5.20
2022-11-23T07:28:44.639Z,5.30
2022-11-23T07:31:15.981Z,5.30
2022-11-23T07:33:46.855Z,5.40
2022-11-23T07:36:14.685Z,5.40
2022-11-23T07:38:43.569Z,5.40
2022-11-23T07:41:12.450Z,5.40
2022-11-23T07:44:06.001Z,5.40
2022-11-23T07:46:32.967Z,5.40
2022-11-23T07:49:02.303Z,5.40
2022-11-23T07:51:29.962Z,5.50
2022-11-23T07:53:57.241Z,5.40
2022-11-23T07:56:24.458Z,5.40
2022-11-23T07:58:51.425Z,5.50
2022-11-23T08:01:19.482Z,5.50
2022-11-23T08:03:47.300Z,5.50
2022-11-23T08:06:15.466Z,5.50
2022-11-23T08:08:43.407Z,5.50
2022-11-23T08:11:10.491Z,5.50
2022-11-23T08:13:37.566Z,5.50
2022-11-23T08:16:04.738Z,5.60
2022-11-23T08:18:31.973Z,5.60
2022-11-23T08:21:02.294Z,5.60
2022-11-23T08:23:29.667Z,5.70
2022-11-23T08:25:56.714Z,5.70
2022-11-23T08:28:23.977Z,5.70
2022-11-23T08:30:51.036Z,5.70
2022-11-23T08:33:18.016Z,5.80
2022-11-23T08:35:45.109Z,5.80
2022-11-23T08:38:12.489Z,5.80
2022-11-23T08:40:39.743Z,5.90
2022-11-23T08:43:07.290Z,5.90
2022-11-23T08:45:34.309Z,5.90
2022-11-23T08:48:02.210Z,5.90
2022-11-23T08:50:30.432Z,6.00
2022-11-23T08:52:58.695Z,6.00
2022-11-23T08:55:26.991Z,6.10
2022-11-23T08:57:59.807Z,6.10
2022-11-23T09:00:27.861Z,6.10
2022-11-23T09:02:55.488Z,6.20
2022-11-23T09:05:22.449Z,6.20
2022-11-23T09:07:49.490Z,6.20
2022-11-23T09:10:19.110Z,6.20
2022-11-23T09:12:47.896Z,6.20
2022-11-23T09:15:15.580Z,6.30
2022-11-23T09:17:42.596Z,6.30
2022-11-23T09:20:10.420Z,6.30
2022-11-23T09:22:37.665Z,6.30
2022-11-23T09:25:05.633Z,6.30
2022-11-23T09:27:32.876Z,6.40
2022-11-23T09:29:59.800Z,6.40
2022-11-23T09:32:26.879Z,6.40
2022-11-23T09:34:53.791Z,6.40
2022-11-23T09:37:20.775Z,6.40
2022-11-23T09:39:47.729Z,6.40
2022-11-23T09:42:17.718Z,6.40
2022-11-23T09:44:49.500Z,6.40
2022-11-23T09:47:40.840Z,6.40
2022-11-23T09:50:07.735Z,6.50
2022-11-23T09:52:38.317Z,6.50
2022-11-23T09:55:26.426Z,6.50
2022-11-23T09:58:01.307Z,6.50
2022-11-23T10:00:37.073Z,6.60
2022-11-23T10:03:04.426Z,6.60
2022-11-23T10:05:36.687Z,6.60
2022-11-23T10:08:24.013Z,6.60
2022-11-23T10:11:29.678Z,6.70
2022-11-23T10:14:05.971Z,6.60
2022-11-23T10:17:05.028Z,6.70
2022-11-23T10:19:52.830Z,6.70
2022-11-23T10:22:28.720Z,6.70
2022-11-23T10:24:55.708Z,6.70
2022-11-23T10:27:24.671Z,6.70
2022-11-23T10:29:54.454Z,6.70
2022-11-23T10:32:52.529Z,6.70
2022-11-23T10:35:30.868Z,6.70
2022-11-23T10:38:16.821Z,6.70
2022-11-23T10:41:06.224Z,6.70
2022-11-23T10:43:48.449Z,6.70
2022-11-23T10:46:50.901Z,6.80
2022-11-23T10:49:22.659Z,6.80
2022-11-23T10:52:25.782Z,6.80
2022-11-23T10:54:58.362Z,6.80
2022-11-23T10:57:28.258Z,6.80
2022-11-23T10:59:59.665Z,6.80
2022-11-23T11:02:27.023Z,6.80
2022-11-23T11:05:53.520Z,6.90
2022-11-23T11:08:20.695Z,6.90
2022-11-23T11:10:52.879Z,6.90
2022-11-23T11:13:22.898Z,6.90
2022-11-23T11:16:03.419Z,6.90
2022-11-23T11:18:35.903Z,7.00
2022-11-23T11:21:06.909Z,7.00
2022-11-23T11:23:39.014Z,7.00
2022-11-23T11:26:15.459Z,7.00
2022-11-23T11:28:43.769Z,7.10
2022-11-23T11:31:35.901Z,7.20
2022-11-23T11:34:11.814Z,7.20
2022-11-23T11:36:57.808Z,7.20
2022-11-23T11:39:53.931Z,7.30
2022-11-23T11:42:27.428Z,7.30
2022-11-23T11:44:59.232Z,7.30
2022-11-23T11:47:31.897Z,7.30
2022-11-23T11:50:01.753Z,7.30
2022-11-23T11:52:38.089Z,7.40
2022-11-23T11:55:23.332Z,7.30
2022-11-23T11:57:56.526Z,7.40
2022-11-23T12:00:23.589Z,7.40
2022-11-23T12:03:01.691Z,7.40
2022-11-23T12:05:45.102Z,7.40
2022-11-23T12:08:17.472Z,7.50
2022-11-23T12:11:02.091Z,7.40
2022-11-23T12:13:37.323Z,7.50
2022-11-23T12:16:28.063Z,7.50
2022-11-23T12:19:04.013Z,7.50
2022-11-23T12:21:42.541Z,7.60
2022-11-23T12:24:15.390Z,7.60
2022-11-23T12:27:00.009Z,7.60
2022-11-23T12:29:49.324Z,7.70
2022-11-23T12:32:29.703Z,7.70
2022-11-23T12:35:15.527Z,7.70
2022-11-23T12:38:09.112Z,7.70
2022-11-23T12:41:17.429Z,7.70
2022-11-23T12:44:21.402Z,7.70
2022-11-23T12:47:08.559Z,7.70
2022-11-23T12:50:04.352Z,7.70
2022-11-23T12:52:55.860Z,7.70
2022-11-23T12:56:13.751Z,7.70
2022-11-23T12:58:42.919Z,7.70
2022-11-23T13:01:18.739Z,7.70
2022-11-23T13:04:12.066Z,7.70
2022-11-23T13:07:20.773Z,7.80
2022-11-23T13:09:58.384Z,7.80
2022-11-23T13:12:59.371Z,7.80
2022-11-23T13:15:42.750Z,7.80
2022-11-23T13:18:12.466Z,7.80
2022-11-23T13:20:39.349Z,7.80
2022-11-23T13:23:07.059Z,7.90
2022-11-23T13:25:34.103Z,7.80
2022-11-23T13:28:22.784Z,7.90
2022-11-23T13:31:16.172Z,7.90
2022-11-23T13:33:45.593Z,7.90
2022-11-23T13:36:49.289Z,7.90
2022-11-23T13:39:45.114Z,7.90
2022-11-23T13:42:14.800Z,7.90
2022-11-23T13:44:41.882Z,7.80
2022-11-23T13:47:16.167Z,7.90
2022-11-23T13:49:53.121Z,7.80
2022-11-23T13:52:23.347Z,7.90
2022-11-23T13:55:12.030Z,7.90
2022-11-23T13:57:40.318Z,7.80
2022-11-23T14:00:45.314Z,7.80
2022-11-23T14:03:44.225Z,7.80
2022-11-23T14:06:21.068Z,7.70
2022-11-23T14:08:53.989Z,7.70
2022-11-23T14:11:23.514Z,7.70
2022-11-23T14:13:58.541Z,7.70
2022-11-23T14:16:55.760Z,7.70
2022-11-23T14:19:55.757Z,7.70
2022-11-23T14:22:30.999Z,7.70
2022-11-23T14:25:22.824Z,7.60
2022-11-23T14:27:52.556Z,7.60
2022-11-23T14:30:41.456Z,7.60
2022-11-23T14:33:22.529Z,7.70
2022-11-23T14:36:06.132Z,7.70
2022-11-23T14:39:10.205Z,7.70
2022-11-23T14:41:37.992Z,7.70
2022-11-23T14:44:06.460Z,7.70
2022-11-23T14:46:33.649Z,7.70
2022-11-23T14:49:06.999Z,7.70
2022-11-23T14:51:35.963Z,7.70
2022-11-23T14:54:10.141Z,7.70
2022-11-23T14:56:44.124Z,7.60
2022-11-23T14:59:14.367Z,7.60
2022-11-23T15:01:47.062Z,7.60
2022-11-23T15:04:29.271Z,7.60
2022-11-23T15:07:02.866Z,7.60
2022-11-23T15:10:01.324Z,7.60
2022-11-23T15:12:40.702Z,7.50
2022-11-23T15:15:22.634Z,7.50
2022-11-23T15:18:02.492Z,7.50
2022-11-23T15:20:35.638Z,7.50
2022-11-23T15:23:02.921Z,7.50
2022-11-23T15:25:30.476Z,7.40
2022-11-23T15:27:57.655Z,7.20
2022-11-23T15:30:30.832Z,7.30
2022-11-23T15:33:05.614Z,7.30
2022-11-23T15:35:38.681Z,7.30
2022-11-23T15:38:12.486Z,7.20
2022-11-23T15:40:43.231Z,7.30
2022-11-23T15:43:14.411Z,7.20
2022-11-23T15:45:44.514Z,7.10
2022-11-23T15:48:18.727Z,7.10
2022-11-23T15:51:01.157Z,7.10
2022-11-23T15:53:51.234Z,7.10
2022-11-23T15:56:29.655Z,7.10
2022-11-23T15:58:58.894Z,7.10
2022-11-23T16:01:26.334Z,7.00
2022-11-23T16:03:55.802Z,6.90
2022-11-23T16:06:34.543Z,6.90
2022-11-23T16:09:02.173Z,6.90
2022-11-23T16:11:37.379Z,6.90
2022-11-23T16:14:33.296Z,6.90
2022-11-23T16:17:13.219Z,6.80
2022-11-23T16:19:46.301Z,6.80
2022-11-23T16:22:30.627Z,6.80
2022-11-23T16:25:06.843Z,6.80
2022-11-23T16:27:37.843Z,6.70
2022-11-23T16:30:06.081Z,6.70
2022-11-23T16:32:33.562Z,6.60
2022-11-23T16:35:30.132Z,6.50
2022-11-23T16:37:57.513Z,6.50
2022-11-23T16:40:25.014Z,6.50
2022-11-23T16:42:53.566Z,6.50
2022-11-23T16:45:21.260Z,6.50
2022-11-23T16:48:27.198Z,6.30
2022-11-23T16:50:56.553Z,6.30
2022-11-23T16:53:27.267Z,6.20
2022-11-23T16:55:57.978Z,6.30
2022-11-23T16:58:29.848Z,6.20
2022-11-23T17:00:57.172Z,6.20
2022-11-23T17:03:25.476Z,6.20
2022-11-23T17:05:53.362Z,6.20
2022-11-23T17:08:23.907Z,6.30
2022-11-23T17:10:53.426Z,6.30
2022-11-23T17:13:27.909Z,6.30
2022-11-23T17:15:55.775Z,6.30
2022-11-23T17:18:23.899Z,6.40
2022-11-23T17:20:51.807Z,6.40
2022-11-23T17:23:19.673Z,6.30
2022-11-23T17:25:47.370Z,6.30
2022-11-23T17:28:22.758Z,6.30
2022-11-23T17:30:50.385Z,6.20
2022-11-23T17:33:18.110Z,6.10
2022-11-23T17:35:45.635Z,6.20
2022-11-23T17:38:17.521Z,6.10
2022-11-23T17:40:45.486Z,6.00
2022-11-23T17:43:16.184Z,6.00
2022-11-23T17:45:45.001Z,6.00
2022-11-23T17:48:15.987Z,6.00
2022-11-23T17:50:44.318Z,6.00
2022-11-23T17:53:13.147Z,6.00
2022-11-23T17:55:41.179Z,6.00
2022-11-23T17:58:12.026Z,5.90
2022-11-23T18:00:39.870Z,5.90
2022-11-23T18:03:08.052Z,5.80
2022-11-23T18:05:36.132Z,5.80
2022-11-23T18:08:03.954Z,5.80
2022-11-23T18:10:31.511Z,5.80
2022-11-23T18:13:00.192Z,5.70
2022-11-23T18:15:31.008Z,5.70
2022-11-23T18:18:04.392Z,5.60
2022-11-23T18:20:34.060Z,5.60
2022-11-23T18:23:02.042Z,5.60
2022-11-23T18:25:29.881Z,5.50
2022-11-23T18:27:58.705Z,5.50
2022-11-23T18:30:26.507Z,5.50
2022-11-23T18:32:54.413Z,5.40
2022-11-23T18:35:22.120Z,5.40
2022-11-23T18:37:49.917Z,5.40
2022-11-23T18:40:19.303Z,5.40
2022-11-23T18:42:46.994Z,5.40
2022-11-23T18:45:14.879Z,5.30
2022-11-23T18:47:42.551Z,5.30
2022-11-23T18:50:10.447Z,5.20
2022-11-23T18:52:38.348Z,5.20
2022-11-23T18:55:07.005Z,5.10
2022-11-23T18:57:36.223Z,5.10
2022-11-23T19:00:08.538Z,5.10
2022-11-23T19:02:38.987Z,5.10
2022-11-23T19:05:08.651Z,5.10
2022-11-23T19:07:36.317Z,5.10
2022-11-23T19:10:04.563Z,5.10
2022-11-23T19:12:32.831Z,5.00
2022-11-23T19:15:03.112Z,5.00
2022-11-23T19:17:30.632Z,5.00
2022-11-23T19:19:58.460Z,4.90
2022-11-23T19:22:26.495Z,4.90
2022-11-23T19:24:54.658Z,4.90
2022-11-23T19:27:22.293Z,4.90
2022-11-23T19:29:50.205Z,4.80
2022-11-23T19:32:21.710Z,4.80
2022-11-23T19:34:49.784Z,4.80
2022-11-23T19:37:18.523Z,4.80
2022-11-23T19:39:47.431Z,4.80
2022-11-23T19:42:15.704Z,4.80
2022-11-23T19:44:43.742Z,4.80
2022-11-23T19:47:17.513Z,4.80
2022-11-23T19:49:47.991Z,4.70
2022-11-23T19:52:17.499Z,4.70
2022-11-23T19:54:46.556Z,4.70
2022-11-23T19:57:14.967Z,4.60
2022-11-23T19:59:42.900Z,4.70
2022-11-23T20:02:23.633Z,4.70
2022-11-23T20:04:57.196Z,4.70
2022-11-23T20:07:27.887Z,4.60
2022-11-23T20:09:55.472Z,4.60
2022-11-23T20:12:24.589Z,4.60
2022-11-23T20:14:52.511Z,4.50
2022-11-23T20:17:19.962Z,4.60
2022-11-23T20:19:47.960Z,4.60
2022-11-23T20:22:15.833Z,4.60
2022-11-23T20:24:44.023Z,4.60
2022-11-23T20:27:11.630Z,4.50
2022-11-23T20:29:40.842Z,4.50
2022-11-23T20:32:08.852Z,4.50
2022-11-23T20:34:36.656Z,4.60
2022-11-23T20:37:06.825Z,4.50
2022-11-23T20:39:34.544Z,4.50
2022-11-23T20:42:02.649Z,4.40
2022-11-23T20:44:33.959Z,4.40
2022-11-23T20:47:03.776Z,4.40
2022-11-23T20:49:32.987Z,4.50
2022-11-23T20:52:02.064Z,4.50
2022-11-23T20:54:29.586Z,4.50
2022-11-23T20:57:00.593Z,4.50
2022-11-23T20:59:28.450Z,4.50
2022-11-23T21:01:56.029Z,4.60
2022-11-23T21:04:23.406Z,4.60
2022-11-23T21:06:50.673Z,4.50
2022-11-23T21:09:19.723Z,4.50
2022-11-23T21:12:05.285Z,4.50
2022-11-23T21:14:33.071Z,4.50
2022-11-23T21:17:01.110Z,4.50
2022-11-23T21:19:30.231Z,4.50
2022-11-23T21:21:59.351Z,4.50
2022-11-23T21:24:28.396Z,4.50
2022-11-23T21:26:55.612Z,4.50
2022-11-23T21:29:23.106Z,4.50
2022-11-23T21:31:51.405Z,4.50
2022-11-23T21:34:23.981Z,4.50
2022-11-23T21:36:52.002Z,4.40
2022-11-23T21:39:19.814Z,4.40
2022-11-23T21:41:49.303Z,4.40
2022-11-23T21:44:16.964Z,4.40
2022-11-23T21:46:44.376Z,4.40
2022-11-23T21:49:11.908Z,4.40
2022-11-23T21:51:39.479Z,4.40
2022-11-23T21:54:10.322Z,4.40
2022-11-23T21:56:37.720Z,4.40
2022-11-23T21:59:04.932Z,4.30
2022-11-23T22:01:34.135Z,4.30
2022-11-23T22:04:02.598Z,4.30
2022-11-23T22:06:30.346Z,4.30
2022-11-23T22:08:59.926Z,4.30
2022-11-23T22:11:32.512Z,4.30
2022-11-23T22:14:02.563Z,4.20
2022-11-23T22:16:35.307Z,4.20
2022-11-23T22:19:02.926Z,4.30
2022-11-23T22:21:34.270Z,4.20
2022-11-23T22:24:03.595Z,4.30
2022-11-23T22:26:31.100Z,4.20
2022-11-23T22:29:02.516Z,4.20
2022-11-23T22:31:33.988Z,4.20
2022-11-23T22:34:03.297Z,4.20
2022-11-23T22:36:30.907Z,4.20
2022-11-23T22:39:01.962Z,4.20
2022-11-23T22:41:29.990Z,4.20
2022-11-23T22:43:57.178Z,4.20
2022-11-23T22:46:25.498Z,4.20
2022-11-23T22:48:53.291Z,4.20
2022-11-23T22:51:23.778Z,4.20
2022-11-23T22:53:55.578Z,4.20
2022-11-23T22:56:22.933Z,4.30
2022-11-23T22:58:50.421Z,4.20
2022-11-23T23:01:23.637Z,4.20
2022-11-23T23:03:55.850Z,4.20
2022-11-23T23:06:25.540Z,4.20
2022-11-23T23:08:57.816Z,4.20
2022-11-23T23:11:26.518Z,4.20
2022-11-23T23:13:54.000Z,4.10
2022-11-23T23:16:21.493Z,4.10
2022-11-23T23:18:49.170Z,4.10
2022-11-23T23:21:20.737Z,4.10
2022-11-23T23:23:49.984Z,4.10
2022-11-23T23:26:19.607Z,4.10
2022-11-23T23:28:46.660Z,4.10
2022-11-23T23:31:16.300Z,4.10
2022-11-23T23:33:44.915Z,4.10
2022-11-23T23:36:20.956Z,4.00
2022-11-23T23:38:48.592Z,4.00
2022-11-23T23:41:15.887Z,4.00
2022-11-23T23:43:43.129Z,4.10
2022-11-23T23:46:12.889Z,4.00
2022-11-23T23:48:41.319Z,4.00
2022-11-23T23:51:13.912Z,3.90
2022-11-23T23:53:41.472Z,3.90
2022-11-23T23:56:15.960Z,3.80
2022-11-23T23:58:43.703Z,3.90
